Time;durP1;ratioP1;P1;durP2;ratioP2;P2;SDS_P1;SDS_P2;PMS_P1;PMS_P2;Temp;Humidity;BMP_temperature;BMP_pressure;BME280_temperature;BME280_humidity;BME280_pressure;Samples;Min_cycle;Max_cycle;Signal;HPM_P1;HPM_P2
2023/10/24 00:01:58;;;;;;;7.22;3.60;;;13.10;99.90;;;;;;5043331;28;20030;-83
2023/10/24 00:04:25;;;;;;;6.55;3.25;;;13.20;99.90;;;;;;5041499;28;20037;-83
2023/10/24 00:06:50;;;;;;;9.93;4.13;;;13.10;99.90;;;;;;5043171;28;20025;-83
2023/10/24 00:09:16;;;;;;;5.53;3.35;;;13.10;99.90;;;;;;5041493;28;20053;-82
2023/10/24 00:11:42;;;;;;;7.43;4.45;;;13.10;99.90;;;;;;5043079;28;20307;-84
2023/10/24 00:14:09;;;;;;;6.22;3.90;;;13.10;99.90;;;;;;5041069;28;20017;-83
2023/10/24 00:16:36;;;;;;;7.28;4.03;;;13.10;99.90;;;;;;5042689;28;20021;-83
2023/10/24 00:19:01;;;;;;;6.03;3.83;;;13.10;99.90;;;;;;5042251;28;20030;-83
2023/10/24 00:21:27;;;;;;;7.78;4.25;;;13.10;99.90;;;;;;5041928;28;20024;-82
2023/10/24 00:23:53;;;;;;;5.47;3.95;;;13.10;99.90;;;;;;5042941;28;20029;-83
2023/10/24 00:26:18;;;;;;;8.57;4.22;;;13.10;99.90;;;;;;5041602;28;20022;-83
2023/10/24 00:28:44;;;;;;;8.10;4.38;;;13.10;99.90;;;;;;5042869;28;20021;-84
2023/10/24 00:31:10;;;;;;;10.40;3.85;;;13.10;99.90;;;;;;5041291;28;20048;-84
2023/10/24 00:33:36;;;;;;;5.50;3.60;;;13.10;99.90;;;;;;5042162;28;20022;-84
2023/10/24 00:36:01;;;;;;;6.85;3.95;;;13.10;99.90;;;;;;5042357;28;20091;-83
2023/10/24 00:38:27;;;;;;;7.43;3.63;;;13.20;99.90;;;;;;5041644;28;20050;-84
2023/10/24 00:40:53;;;;;;;5.93;3.97;;;13.20;99.90;;;;;;5042560;28;20022;-84
2023/10/24 00:43:18;;;;;;;8.95;4.72;;;13.20;99.90;;;;;;5040881;28;20053;-84
2023/10/24 00:45:44;;;;;;;7.82;4.70;;;13.20;99.90;;;;;;5042556;28;20021;-84
2023/10/24 00:48:10;;;;;;;6.07;4.22;;;13.20;99.90;;;;;;5040467;28;20061;-84
2023/10/24 00:50:36;;;;;;;8.32;5.13;;;13.20;99.90;;;;;;5042457;28;20497;-84
2023/10/24 00:53:03;;;;;;;9.23;5.47;;;13.20;99.90;;;;;;5041977;28;20029;-83
2023/10/24 00:55:30;;;;;;;8.45;4.50;;;13.20;99.90;;;;;;5041776;28;20024;-84
2023/10/24 00:57:58;;;;;;;10.35;5.22;;;13.20;99.90;;;;;;5042707;28;20021;-84
2023/10/24 01:00:25;;;;;;;8.40;5.45;;;13.20;99.90;;;;;;5040914;28;20032;-84
2023/10/24 01:02:52;;;;;;;8.27;5.03;;;13.20;99.90;;;;;;5041630;28;20040;-84
2023/10/24 01:05:18;;;;;;;10.70;5.07;;;13.20;99.90;;;;;;5040761;28;20089;-84
2023/10/24 01:07:45;;;;;;;7.55;4.93;;;13.20;99.90;;;;;;5042464;28;20144;-84
2023/10/24 01:10:11;;;;;;;8.50;5.20;;;13.20;99.90;;;;;;5041714;28;20022;-84
2023/10/24 01:12:38;;;;;;;11.68;5.55;;;13.20;99.90;;;;;;5041486;28;20068;-84
2023/10/24 01:15:06;;;;;;;9.07;5.65;;;13.20;99.90;;;;;;5041639;28;20116;-85
2023/10/24 01:17:31;;;;;;;7.55;4.95;;;13.20;99.90;;;;;;5039871;28;20068;-84
2023/10/24 01:19:57;;;;;;;7.28;4.82;;;13.30;99.90;;;;;;5042145;28;20025;-85
2023/10/24 01:22:23;;;;;;;9.07;5.25;;;13.30;99.90;;;;;;5040689;28;20037;-84
2023/10/24 01:24:50;;;;;;;7.32;4.90;;;13.30;99.90;;;;;;5042127;28;20060;-85
2023/10/24 01:27:18;;;;;;;10.73;5.35;;;13.30;99.90;;;;;;5040706;28;20033;-85
2023/10/24 01:29:44;;;;;;;8.38;5.00;;;13.30;99.90;;;;;;5041340;28;20079;-85
2023/10/24 01:32:10;;;;;;;9.05;5.70;;;13.30;99.90;;;;;;5041506;28;20124;-85
2023/10/24 01:34:36;;;;;;;10.43;4.97;;;13.30;99.90;;;;;;5040608;28;20025;-85
2023/10/24 01:37:02;;;;;;;9.13;5.00;;;13.30;99.90;;;;;;5042012;28;20061;-85
2023/10/24 01:39:27;;;;;;;8.35;5.13;;;13.20;99.90;;;;;;5040557;28;20029;-84
2023/10/24 01:41:53;;;;;;;11.73;5.72;;;13.30;99.90;;;;;;5042467;28;20022;-86
2023/10/24 01:44:19;;;;;;;7.90;5.65;;;13.20;99.90;;;;;;5042655;28;20033;-85
2023/10/24 01:46:45;;;;;;;11.20;5.03;;;13.20;99.90;;;;;;5042226;28;20028;-86
2023/10/24 01:49:11;;;;;;;10.73;5.47;;;13.20;99.90;;;;;;5042964;28;20535;-86
2023/10/24 01:51:38;;;;;;;9.95;5.68;;;13.20;99.90;;;;;;5041717;28;20108;-86
2023/10/24 01:54:04;;;;;;;10.52;5.10;;;13.20;99.90;;;;;;5042495;28;20057;-83
2023/10/24 01:56:30;;;;;;;8.63;4.35;;;13.20;99.90;;;;;;5040045;28;20026;-86
2023/10/24 01:58:56;;;;;;;9.65;4.40;;;13.20;99.90;;;;;;5041892;28;20464;-85
2023/10/24 02:01:21;;;;;;;8.18;4.93;;;13.20;99.90;;;;;;5040482;28;20678;-84
2023/10/24 02:03:47;;;;;;;10.75;4.65;;;13.20;99.90;;;;;;5041559;28;20061;-85
2023/10/24 02:06:13;;;;;;;8.82;4.82;;;13.20;99.90;;;;;;5041486;28;20033;-86
2023/10/24 02:08:38;;;;;;;8.52;4.50;;;13.20;99.90;;;;;;5040630;28;20059;-85
2023/10/24 02:11:04;;;;;;;9.02;4.55;;;13.20;99.90;;;;;;5041814;28;20470;-84
2023/10/24 02:13:30;;;;;;;8.32;4.85;;;13.20;99.90;;;;;;5039429;28;20013;-85
2023/10/24 02:15:56;;;;;;;8.77;3.95;;;13.10;99.90;;;;;;5045002;28;20032;-85
2023/10/24 02:18:21;;;;;;;8.27;4.40;;;13.10;99.90;;;;;;5045622;28;20404;-86
2023/10/24 02:20:47;;;;;;;9.05;4.32;;;13.10;99.90;;;;;;5042516;28;20036;-85
2023/10/24 02:23:13;;;;;;;5.90;3.55;;;13.10;99.90;;;;;;5041472;28;20037;-84
2023/10/24 02:25:38;;;;;;;5.78;3.60;;;13.10;99.90;;;;;;5040648;28;20104;-84
2023/10/24 02:28:05;;;;;;;6.85;3.17;;;13.10;99.90;;;;;;5041230;28;20024;-85
2023/10/24 02:30:30;;;;;;;7.65;3.65;;;13.10;99.90;;;;;;5039357;28;20083;-84
2023/10/24 02:33:00;;;;;;;7.85;3.50;;;13.10;99.90;;;;;;5041916;28;20018;-84
2023/10/24 02:35:27;;;;;;;7.70;3.40;;;13.10;99.90;;;;;;5040265;28;20017;-85
2023/10/24 02:37:53;;;;;;;4.65;2.97;;;13.10;99.90;;;;;;5041696;28;20136;-85
2023/10/24 02:40:18;;;;;;;8.55;3.53;;;13.10;99.90;;;;;;5044592;28;20448;-83
2023/10/24 02:42:44;;;;;;;7.03;3.30;;;13.10;99.90;;;;;;5043252;28;20025;-84
2023/10/24 02:45:10;;;;;;;7.07;3.00;;;13.10;99.90;;;;;;5045138;28;20053;-84
2023/10/24 02:47:36;;;;;;;6.68;3.47;;;13.10;99.90;;;;;;5043339;28;20025;-83
2023/10/24 02:50:02;;;;;;;5.05;2.90;;;13.10;99.90;;;;;;5045201;28;20025;-83
2023/10/24 02:52:31;;;;;;;5.85;3.10;;;13.10;99.90;;;;;;5043413;28;20036;-83
2023/10/24 02:54:57;;;;;;;5.35;3.08;;;13.10;99.90;;;;;;5044381;28;20089;-82
2023/10/24 02:57:22;;;;;;;4.10;2.63;;;13.00;99.90;;;;;;5043530;28;20081;-83
2023/10/24 02:59:49;;;;;;;7.05;2.92;;;13.00;99.90;;;;;;5043720;28;20025;-83
2023/10/24 03:02:15;;;;;;;6.15;2.55;;;13.00;99.90;;;;;;5044649;28;20026;-83
2023/10/24 03:04:40;;;;;;;4.57;2.38;;;13.00;99.90;;;;;;5043144;28;20049;-84
2023/10/24 03:07:06;;;;;;;4.57;2.45;;;13.00;99.90;;;;;;5044667;28;20031;-83
2023/10/24 03:09:33;;;;;;;5.90;2.22;;;13.00;99.90;;;;;;5042845;28;20033;-83
2023/10/24 03:11:58;;;;;;;5.93;2.35;;;13.00;99.90;;;;;;5043704;28;20108;-83
2023/10/24 03:14:24;;;;;;;4.78;2.80;;;13.00;99.90;;;;;;5043160;28;20027;-83
2023/10/24 03:16:50;;;;;;;7.28;3.03;;;13.00;99.90;;;;;;5043757;28;20018;-84
2023/10/24 03:19:16;;;;;;;7.53;2.70;;;13.00;99.90;;;;;;5044385;28;20041;-83
2023/10/24 03:21:41;;;;;;;5.10;3.40;;;13.00;99.90;;;;;;5042297;28;20035;-84
2023/10/24 03:24:08;;;;;;;8.18;3.78;;;13.00;99.90;;;;;;5044191;28;20104;-84
2023/10/24 03:26:33;;;;;;;8.18;3.88;;;13.00;99.90;;;;;;5041714;28;20393;-83
2023/10/24 03:28:59;;;;;;;7.18;4.10;;;13.00;99.90;;;;;;5044087;28;20098;-86
2023/10/24 03:31:25;;;;;;;7.50;4.32;;;13.00;99.90;;;;;;5043301;28;20061;-85
2023/10/24 03:33:50;;;;;;;6.50;3.72;;;13.00;99.90;;;;;;5043792;28;20017;-85
2023/10/24 03:36:16;;;;;;;8.25;4.47;;;13.00;99.90;;;;;;5044199;28;20025;-84
2023/10/24 03:38:43;;;;;;;6.53;3.67;;;12.90;99.90;;;;;;5045339;28;20041;-84
2023/10/24 03:41:09;;;;;;;7.03;3.97;;;12.90;99.90;;;;;;5044654;28;20027;-84
2023/10/24 03:43:35;;;;;;;7.78;3.50;;;12.90;99.90;;;;;;5042358;28;20412;-85
2023/10/24 03:46:07;;;;;;;5.95;3.72;;;12.90;99.90;;;;;;5044033;28;20053;-85
2023/10/24 03:48:33;;;;;;;7.60;4.32;;;12.90;99.90;;;;;;5042565;28;20033;-85
2023/10/24 03:51:00;;;;;;;6.53;3.50;;;12.80;99.90;;;;;;5043464;28;20025;-85
2023/10/24 03:53:26;;;;;;;5.82;3.33;;;12.80;99.90;;;;;;5044003;28;20109;-85
2023/10/24 03:55:59;;;;;;;8.07;3.53;;;12.80;99.90;;;;;;5041675;28;20037;-86
2023/10/24 03:58:25;;;;;;;4.47;2.70;;;12.80;99.90;;;;;;5043534;28;20032;-85
2023/10/24 04:00:51;;;;;;;5.15;2.85;;;12.80;99.90;;;;;;5042326;28;20108;-83
2023/10/24 04:03:17;;;;;;;6.47;3.03;;;12.80;99.90;;;;;;5043379;28;20236;-83
2023/10/24 04:05:42;;;;;;;5.47;3.00;;;12.70;99.90;;;;;;5042358;28;20025;-83
2023/10/24 04:08:09;;;;;;;5.05;2.83;;;12.80;99.90;;;;;;5043130;28;20044;-83
2023/10/24 04:10:34;;;;;;;5.88;2.92;;;12.70;99.90;;;;;;5042985;28;20071;-83
2023/10/24 04:13:01;;;;;;;3.92;2.20;;;12.70;99.90;;;;;;5041555;28;20014;-84
2023/10/24 04:15:27;;;;;;;5.00;2.83;;;12.70;99.90;;;;;;5043421;28;20025;-85
2023/10/24 04:17:53;;;;;;;3.13;1.85;;;12.70;99.90;;;;;;5041459;28;20034;-85
2023/10/24 04:20:19;;;;;;;5.75;2.95;;;12.70;99.90;;;;;;5043339;28;20030;-85
2023/10/24 04:22:47;;;;;;;5.45;2.83;;;12.70;99.90;;;;;;5041573;28;20043;-85
2023/10/24 04:25:12;;;;;;;5.88;2.83;;;12.70;99.90;;;;;;5042092;28;20057;-84
2023/10/24 04:27:38;;;;;;;4.93;2.30;;;12.70;99.90;;;;;;5042977;28;20058;-85
2023/10/24 04:30:07;;;;;;;4.65;2.17;;;12.70;99.90;;;;;;5041525;28;20018;-84
2023/10/24 04:32:33;;;;;;;5.18;3.08;;;12.70;99.90;;;;;;5043087;28;20029;-84
2023/10/24 04:35:00;;;;;;;5.20;2.55;;;12.70;99.90;;;;;;5041351;28;20052;-83
2023/10/24 04:37:26;;;;;;;5.07;2.83;;;12.70;99.90;;;;;;5043729;28;20045;-81
2023/10/24 04:39:51;;;;;;;5.03;2.80;;;12.60;99.90;;;;;;5040972;28;20049;-82
2023/10/24 04:42:17;;;;;;;4.22;2.58;;;12.60;99.90;;;;;;5041262;28;20516;-82
2023/10/24 04:44:43;;;;;;;6.18;3.58;;;12.60;99.90;;;;;;5040825;28;20025;-82
2023/10/24 04:47:09;;;;;;;6.28;3.45;;;12.60;99.90;;;;;;5040316;28;20032;-82
2023/10/24 04:49:36;;;;;;;5.30;2.97;;;12.60;99.90;;;;;;5042307;28;20025;-82
2023/10/24 04:52:02;;;;;;;6.55;3.00;;;12.60;99.90;;;;;;5040035;28;20029;-83
2023/10/24 04:54:28;;;;;;;5.20;2.92;;;12.60;99.90;;;;;;5040449;28;20021;-82
2023/10/24 04:56:55;;;;;;;6.38;2.70;;;12.60;99.90;;;;;;5039896;28;20300;-82
2023/10/24 04:59:20;;;;;;;5.20;3.30;;;12.60;99.90;;;;;;5040942;28;20025;-82
2023/10/24 05:01:46;;;;;;;4.32;2.80;;;12.60;99.90;;;;;;5039343;28;20160;-81
2023/10/24 05:04:12;;;;;;;5.45;3.03;;;12.60;99.90;;;;;;5040425;28;20025;-82
2023/10/24 05:06:38;;;;;;;5.95;3.63;;;12.60;99.90;;;;;;5040443;28;20037;-80
2023/10/24 05:09:03;;;;;;;5.45;3.13;;;12.50;99.90;;;;;;5039502;28;20394;-83
2023/10/24 05:11:29;;;;;;;7.10;3.20;;;12.60;99.90;;;;;;5040490;28;20029;-83
2023/10/24 05:13:55;;;;;;;6.28;3.53;;;12.60;99.90;;;;;;5039280;28;20020;-83
2023/10/24 05:16:21;;;;;;;7.47;3.97;;;12.60;99.90;;;;;;5040737;28;20028;-83
2023/10/24 05:18:47;;;;;;;7.32;3.80;;;12.60;99.90;;;;;;5039225;28;20051;-81
2023/10/24 05:21:12;;;;;;;6.95;3.80;;;12.60;99.90;;;;;;5039779;28;20037;-81
2023/10/24 05:23:38;;;;;;;8.40;4.47;;;12.60;99.90;;;;;;5039613;28;20029;-80
2023/10/24 05:26:03;;;;;;;7.30;3.90;;;12.60;99.90;;;;;;5039009;28;20024;-81
2023/10/24 05:28:30;;;;;;;10.20;4.55;;;12.50;99.90;;;;;;5040149;28;20022;-81
2023/10/24 05:30:56;;;;;;;11.55;5.18;;;12.60;99.90;;;;;;5019900;28;20116;-82
2023/10/24 05:33:24;;;;;;;8.35;4.55;;;12.50;99.90;;;;;;5020817;28;20025;-82
2023/10/24 05:35:49;;;;;;;11.10;5.22;;;12.50;99.90;;;;;;5032240;28;20025;-81
2023/10/24 05:38:15;;;;;;;10.20;5.20;;;12.50;99.90;;;;;;5039355;28;20057;-81
2023/10/24 05:40:44;;;;;;;8.98;4.97;;;12.60;99.90;;;;;;5040041;28;20025;-82
2023/10/24 05:43:10;;;;;;;9.45;5.35;;;12.50;99.90;;;;;;5038998;28;20501;-82
2023/10/24 05:45:36;;;;;;;8.13;5.07;;;12.60;99.90;;;;;;5036161;28;20029;-81
2023/10/24 05:48:03;;;;;;;8.40;5.05;;;12.50;99.90;;;;;;5021580;28;20033;-82
2023/10/24 05:50:30;;;;;;;8.27;5.13;;;12.50;99.90;;;;;;5029658;28;20029;-81
2023/10/24 05:52:56;;;;;;;8.60;5.35;;;12.50;99.90;;;;;;5038600;28;20734;-81
2023/10/24 05:55:22;;;;;;;8.25;4.53;;;12.50;99.90;;;;;;5039330;28;20034;-81
2023/10/24 05:57:48;;;;;;;8.07;4.63;;;12.50;99.90;;;;;;5039207;28;20142;-81
2023/10/24 06:00:14;;;;;;;8.68;4.70;;;12.50;99.90;;;;;;5039183;28;20029;-81
2023/10/24 06:02:40;;;;;;;8.73;5.15;;;12.50;99.90;;;;;;5039899;28;20108;-83
2023/10/24 06:05:06;;;;;;;7.78;5.28;;;12.50;99.90;;;;;;5035067;28;20498;-82
2023/10/24 06:07:32;;;;;;;9.48;5.45;;;12.50;99.90;;;;;;5020284;28;20033;-83
2023/10/24 06:09:57;;;;;;;9.63;6.00;;;12.50;99.90;;;;;;5018729;28;20026;-82
2023/10/24 06:12:23;;;;;;;9.30;5.82;;;12.50;99.90;;;;;;5020407;28;20090;-82
2023/10/24 06:14:49;;;;;;;8.20;4.82;;;12.40;99.90;;;;;;5025692;28;20060;-82
2023/10/24 06:17:17;;;;;;;8.93;5.35;;;12.40;99.90;;;;;;5028062;28;20022;-81
2023/10/24 06:19:45;;;;;;;8.02;5.07;;;12.40;99.90;;;;;;5025817;28;20057;-82
2023/10/24 06:22:11;;;;;;;7.88;4.80;;;12.40;99.90;;;;;;5022537;28;20025;-81
2023/10/24 06:24:36;;;;;;;7.70;4.68;;;12.40;99.90;;;;;;5024113;28;20018;-81
2023/10/24 06:27:02;;;;;;;7.68;5.07;;;12.40;99.90;;;;;;5022808;28;20053;-81
2023/10/24 06:29:30;;;;;;;8.55;5.25;;;12.40;99.90;;;;;;5023734;28;20026;-82
2023/10/24 06:31:57;;;;;;;8.13;5.40;;;12.40;99.90;;;;;;5023099;28;20026;-81
2023/10/24 06:34:23;;;;;;;8.10;4.97;;;12.40;99.90;;;;;;5022909;28;20022;-81
2023/10/24 06:36:49;;;;;;;8.43;5.13;;;12.40;99.90;;;;;;5023101;28;20026;-81
2023/10/24 06:39:15;;;;;;;7.93;4.97;;;12.40;99.90;;;;;;5022590;28;20049;-81
2023/10/24 06:41:40;;;;;;;9.63;5.55;;;12.40;99.90;;;;;;5023944;28;20045;-81
2023/10/24 06:44:06;;;;;;;7.65;5.10;;;12.40;99.90;;;;;;5022431;28;20038;-81
2023/10/24 06:46:33;;;;;;;8.50;4.95;;;12.30;99.90;;;;;;5023423;28;20029;-82
2023/10/24 06:48:59;;;;;;;6.47;4.20;;;12.40;99.90;;;;;;5022627;28;20575;-81
2023/10/24 06:51:24;;;;;;;6.55;4.47;;;12.30;99.90;;;;;;5022720;28;20022;-81
2023/10/24 06:53:51;;;;;;;9.30;4.60;;;12.30;99.90;;;;;;5007059;28;20025;-81
2023/10/24 06:56:17;;;;;;;7.22;4.00;;;12.30;99.90;;;;;;5022625;28;20017;-81
2023/10/24 06:58:43;;;;;;;5.70;3.50;;;12.30;99.90;;;;;;5023111;28;20018;-82
2023/10/24 07:01:09;;;;;;;4.80;3.33;;;12.40;99.90;;;;;;5021840;28;20022;-82
2023/10/24 07:03:34;;;;;;;5.40;3.47;;;12.40;99.90;;;;;;5022898;28;20030;-82
2023/10/24 07:06:00;;;;;;;5.13;3.30;;;12.40;99.90;;;;;;5023840;28;20030;-82
2023/10/24 07:08:26;;;;;;;5.45;3.00;;;12.40;99.90;;;;;;5022700;28;20044;-82
2023/10/24 07:10:51;;;;;;;5.68;3.40;;;12.40;99.90;;;;;;5022583;28;20014;-83
2023/10/24 07:13:18;;;;;;;5.60;3.08;;;12.40;99.90;;;;;;5021682;28;20030;-82
2023/10/24 07:15:44;;;;;;;5.55;3.53;;;12.40;99.90;;;;;;5022757;28;20025;-82
2023/10/24 07:18:11;;;;;;;6.28;3.15;;;12.40;99.90;;;;;;5022499;28;20033;-82
2023/10/24 07:20:38;;;;;;;4.00;2.15;;;12.40;99.90;;;;;;5022925;28;20065;-82
2023/10/24 07:23:04;;;;;;;4.82;2.83;;;12.40;99.90;;;;;;5021836;28;20046;-82
2023/10/24 07:25:31;;;;;;;6.43;3.72;;;12.40;99.90;;;;;;5021617;28;20049;-83
2023/10/24 07:27:57;;;;;;;4.88;3.10;;;12.50;99.90;;;;;;5022447;28;20341;-82
2023/10/24 07:30:24;;;;;;;4.47;2.60;;;12.50;99.90;;;;;;5021688;28;20058;-83
2023/10/24 07:32:50;;;;;;;5.10;2.83;;;12.40;99.90;;;;;;5022180;28;20026;-82
2023/10/24 07:35:16;;;;;;;5.30;2.83;;;12.50;99.90;;;;;;5021538;28;20407;-82
2023/10/24 07:37:42;;;;;;;5.53;2.72;;;12.40;99.90;;;;;;5006158;28;20054;-82
2023/10/24 07:40:08;;;;;;;5.82;3.30;;;12.50;99.90;;;;;;5021795;28;20088;-82
2023/10/24 07:42:34;;;;;;;6.85;3.03;;;12.60;99.90;;;;;;5005681;28;20030;-82
2023/10/24 07:45:00;;;;;;;5.53;2.97;;;12.60;99.90;;;;;;5022108;28;20037;-82
2023/10/24 07:47:28;;;;;;;4.53;2.65;;;12.60;99.90;;;;;;5021211;28;20022;-82
2023/10/24 07:49:55;;;;;;;5.50;2.92;;;12.60;99.90;;;;;;5006620;28;20036;-82
2023/10/24 07:52:21;;;;;;;7.32;3.65;;;12.60;99.90;;;;;;5020864;28;20061;-82
2023/10/24 07:54:46;;;;;;;5.45;3.00;;;12.60;99.90;;;;;;5022473;28;20324;-82
2023/10/24 07:57:12;;;;;;;4.88;2.85;;;12.60;99.90;;;;;;5021400;28;20037;-82
2023/10/24 07:59:38;;;;;;;5.22;3.20;;;12.60;99.90;;;;;;5005281;28;20136;-82
2023/10/24 08:02:04;;;;;;;6.43;3.72;;;12.60;99.90;;;;;;5021197;28;20029;-82
2023/10/24 08:04:30;;;;;;;6.43;3.33;;;12.60;99.90;;;;;;5021268;28;20065;-82
2023/10/24 08:06:56;;;;;;;9.27;3.70;;;12.60;99.90;;;;;;5022000;28;20017;-82
2023/10/24 08:09:22;;;;;;;7.10;3.30;;;12.60;99.90;;;;;;5021068;28;20018;-82
2023/10/24 08:11:47;;;;;;;6.90;4.45;;;12.60;99.90;;;;;;5022147;28;20018;-82
2023/10/24 08:14:13;;;;;;;8.48;4.30;;;12.60;99.90;;;;;;5020403;28;20037;-82
2023/10/24 08:16:39;;;;;;;6.18;3.90;;;12.60;99.90;;;;;;5021323;28;20018;-82
2023/10/24 08:19:05;;;;;;;7.85;4.28;;;12.60;99.90;;;;;;5021019;28;20030;-82
2023/10/24 08:21:30;;;;;;;7.75;3.65;;;12.60;99.90;;;;;;5020684;28;20053;-83
2023/10/24 08:23:56;;;;;;;7.55;3.70;;;12.70;99.90;;;;;;5021243;28;20083;-83
2023/10/24 08:26:22;;;;;;;8.07;4.22;;;12.70;99.90;;;;;;5020627;28;20046;-82
2023/10/24 08:28:48;;;;;;;7.20;3.92;;;12.80;99.90;;;;;;5022036;28;20088;-82
2023/10/24 08:31:14;;;;;;;6.93;3.78;;;12.80;99.90;;;;;;5022405;28;20025;-82
2023/10/24 08:33:40;;;;;;;8.07;3.75;;;12.90;99.90;;;;;;5030326;28;20022;-82
2023/10/24 08:36:06;;;;;;;6.75;3.58;;;12.90;99.90;;;;;;5020799;28;20050;-81
2023/10/24 08:38:31;;;;;;;6.07;3.67;;;13.00;99.90;;;;;;5004596;28;20135;-81
2023/10/24 08:40:57;;;;;;;6.07;3.50;;;13.10;99.90;;;;;;5021319;28;20030;-81
2023/10/24 08:43:25;;;;;;;6.78;3.33;;;13.30;99.90;;;;;;5020288;28;20038;-82
2023/10/24 08:45:51;;;;;;;5.53;3.25;;;13.40;99.90;;;;;;5021220;28;20084;-82
2023/10/24 08:48:17;;;;;;;5.72;3.40;;;13.50;99.90;;;;;;5020435;28;20026;-82
2023/10/24 08:50:44;;;;;;;7.30;4.00;;;13.60;99.60;;;;;;5021325;28;20490;-82
2023/10/24 08:53:16;;;;;;;8.45;4.55;;;13.70;99.60;;;;;;5020872;28;20068;-82
2023/10/24 08:55:51;;;;;;;7.05;4.28;;;13.70;99.30;;;;;;5020767;28;20390;-82
2023/10/24 08:58:19;;;;;;;12.95;4.63;;;13.80;99.10;;;;;;5004767;28;20026;-82
2023/10/24 09:00:46;;;;;;;9.05;4.50;;;13.90;98.40;;;;;;5019719;28;20089;-82
2023/10/24 09:03:15;;;;;;;9.05;4.45;;;13.90;98.30;;;;;;5021396;28;20044;-81
2023/10/24 09:05:57;;;;;;;8.70;4.55;;;13.90;98.20;;;;;;5009901;28;20046;-82
2023/10/24 09:08:25;;;;;;;9.45;4.28;;;13.90;98.10;;;;;;5020401;28;20041;-82
2023/10/24 09:10:51;;;;;;;8.60;4.90;;;13.90;98.10;;;;;;5020652;28;20056;-82
2023/10/24 09:13:18;;;;;;;8.68;4.55;;;13.90;98.00;;;;;;5019960;28;20022;-82
2023/10/24 09:15:43;;;;;;;7.95;4.95;;;13.80;97.70;;;;;;5020751;28;20026;-81
2023/10/24 09:18:09;;;;;;;7.13;4.50;;;13.80;97.80;;;;;;5019979;28;20037;-82
2023/10/24 09:20:35;;;;;;;10.02;4.82;;;13.80;97.80;;;;;;5021231;28;20482;-82
2023/10/24 09:23:09;;;;;;;6.00;3.85;;;13.80;97.80;;;;;;5019822;28;20048;-82
2023/10/24 09:25:35;;;;;;;10.07;4.55;;;13.80;97.90;;;;;;5004090;28;20513;-82
2023/10/24 09:28:18;;;;;;;6.55;3.63;;;13.80;97.70;;;;;;5022151;28;20030;-82
2023/10/24 09:30:45;;;;;;;6.38;3.65;;;13.80;97.80;;;;;;5019270;28;20022;-82
2023/10/24 09:33:11;;;;;;;9.32;4.05;;;13.90;97.90;;;;;;5020772;28;20026;-82
2023/10/24 09:35:40;;;;;;;8.00;3.85;;;13.90;97.70;;;;;;5019810;28;20034;-82
2023/10/24 09:38:09;;;;;;;7.00;3.45;;;14.00;97.70;;;;;;5020496;28;20604;-82
2023/10/24 09:40:36;;;;;;;7.55;3.83;;;14.10;97.90;;;;;;5021499;28;20030;-82
2023/10/24 09:43:22;;;;;;;6.78;3.38;;;14.30;98.00;;;;;;5019653;28;20042;-82
2023/10/24 09:45:51;;;;;;;6.30;3.50;;;14.50;97.90;;;;;;5020446;28;20044;-82
2023/10/24 09:48:17;;;;;;;5.07;3.00;;;14.70;98.20;;;;;;5022320;28;20028;-82
2023/10/24 09:50:46;;;;;;;6.65;3.40;;;15.00;98.20;;;;;;5008599;28;20097;-82
2023/10/24 09:53:12;;;;;;;6.80;3.10;;;15.20;97.20;;;;;;5023985;28;20026;-82
2023/10/24 09:55:48;;;;;;;4.78;2.55;;;15.40;97.00;;;;;;5007680;28;20034;-82
2023/10/24 09:58:15;;;;;;;4.50;2.47;;;15.50;96.80;;;;;;5023937;28;20025;-82
2023/10/24 10:00:41;;;;;;;5.32;2.67;;;15.70;96.90;;;;;;5023512;28;20037;-82
2023/10/24 10:03:09;;;;;;;3.97;2.20;;;15.90;96.70;;;;;;5024527;28;20036;-82
2023/10/24 10:05:38;;;;;;;5.90;2.63;;;16.00;96.10;;;;;;5023136;28;20116;-83
2023/10/24 10:08:06;;;;;;;4.38;2.33;;;16.00;95.30;;;;;;5024673;28;20026;-82
2023/10/24 10:10:34;;;;;;;5.82;2.67;;;16.10;95.20;;;;;;5023581;28;20018;-81
2023/10/24 10:13:05;;;;;;;5.38;2.75;;;16.00;93.90;;;;;;5022622;28;20037;-82
2023/10/24 10:15:49;;;;;;;4.93;3.05;;;15.90;93.60;;;;;;5024229;28;20018;-81
2023/10/24 10:18:43;;;;;;;5.38;2.75;;;15.80;92.70;;;;;;5024333;28;20052;-81
2023/10/24 10:21:21;;;;;;;7.20;2.50;;;15.60;92.70;;;;;;5029891;28;20064;-81
2023/10/24 10:24:12;;;;;;;5.88;2.85;;;15.40;92.60;;;;;;5026546;28;20053;-82
2023/10/24 10:27:05;;;;;;;5.85;3.53;;;15.30;92.40;;;;;;5023081;28;20030;-81
2023/10/24 10:30:03;;;;;;;6.40;2.95;;;15.20;92.40;;;;;;5023670;28;20050;-81
2023/10/24 10:32:49;;;;;;;4.28;2.20;;;15.10;92.30;;;;;;5023936;28;20025;-81
2023/10/24 10:35:15;;;;;;;4.13;2.17;;;15.10;92.50;;;;;;5022647;28;20026;-82
2023/10/24 10:37:40;;;;;;;5.93;2.42;;;15.10;92.40;;;;;;5023581;28;20030;-82
2023/10/24 10:40:15;;;;;;;5.75;2.38;;;15.10;92.60;;;;;;5022582;28;20438;-82
2023/10/24 10:42:47;;;;;;;6.65;2.88;;;15.20;92.60;;;;;;5022932;28;20052;-82
2023/10/24 10:45:42;;;;;;;3.92;1.88;;;15.30;92.60;;;;;;5023438;28;20094;-82
2023/10/24 10:48:08;;;;;;;3.85;1.92;;;15.30;92.80;;;;;;5009664;28;20144;-82
2023/10/24 10:50:37;;;;;;;4.47;1.83;;;15.40;92.80;;;;;;5023955;28;20026;-81
2023/10/24 10:53:34;;;;;;;4.93;2.30;;;15.50;92.90;;;;;;5022783;28;20026;-81
2023/10/24 10:56:20;;;;;;;3.90;2.00;;;15.60;92.70;;;;;;5023496;28;20022;-81
2023/10/24 10:58:52;;;;;;;5.07;2.13;;;15.60;92.50;;;;;;5022183;28;20022;-82
2023/10/24 11:01:17;;;;;;;5.30;2.53;;;15.70;92.50;;;;;;5022144;28;20022;-81
2023/10/24 11:03:44;;;;;;;5.53;2.30;;;15.70;92.40;;;;;;5023361;28;20056;-81
2023/10/24 11:06:17;;;;;;;3.70;1.98;;;15.70;92.40;;;;;;5022821;28;20045;-82
2023/10/24 11:09:09;;;;;;;5.15;2.28;;;15.70;92.30;;;;;;5022419;28;20026;-82
2023/10/24 11:11:37;;;;;;;5.45;2.53;;;15.60;92.30;;;;;;5022884;28;20094;-81
2023/10/24 11:14:21;;;;;;;4.93;2.95;;;15.60;92.20;;;;;;5021672;28;20022;-82
2023/10/24 11:16:50;;;;;;;3.85;2.15;;;15.60;92.60;;;;;;5022955;28;20025;-82
2023/10/24 11:19:24;;;;;;;4.28;2.70;;;15.60;92.40;;;;;;5022490;28;20022;-82
2023/10/24 11:21:52;;;;;;;6.18;3.30;;;15.60;92.10;;;;;;5021923;28;20082;-80
2023/10/24 11:24:20;;;;;;;5.18;2.72;;;15.50;91.90;;;;;;5023082;28;20040;-82
2023/10/24 11:27:04;;;;;;;4.97;2.58;;;15.40;91.90;;;;;;5005579;28;20034;-81
2023/10/24 11:29:30;;;;;;;;;;;15.40;92.00;;;;;;5023438;28;20113;-81
2023/10/24 11:31:58;;;;;;;5.93;2.80;;;15.40;92.20;;;;;;5022225;28;19906;-82
2023/10/24 11:34:23;;;;;;;5.40;2.33;;;15.40;92.20;;;;;;5022093;28;20117;-82
2023/10/24 11:36:51;;;;;;;6.82;2.45;;;15.40;92.20;;;;;;5006523;28;20433;-81
2023/10/24 11:39:16;;;;;;;6.13;2.75;;;15.40;92.20;;;;;;5021339;28;20065;-81
2023/10/24 11:41:43;;;;;;;5.55;2.88;;;15.30;92.20;;;;;;5022919;28;20437;-82
2023/10/24 11:44:12;;;;;;;6.75;3.00;;;15.30;92.10;;;;;;5021327;28;20053;-82
2023/10/24 11:46:42;;;;;;;5.85;2.40;;;15.20;92.10;;;;;;5022247;28;20029;-81
2023/10/24 11:49:08;;;;;;;8.35;3.25;;;15.20;92.20;;;;;;5021924;28;20037;-81
2023/10/24 11:51:34;;;;;;;5.32;2.70;;;15.10;92.20;;;;;;5005707;28;20022;-82
2023/10/24 11:54:04;;;;;;;5.80;2.83;;;14.90;92.30;;;;;;5021977;28;20081;-82
2023/10/24 11:56:31;;;;;;;4.88;2.53;;;14.90;92.50;;;;;;5021090;28;20018;-81
2023/10/24 11:59:02;;;;;;;4.97;2.40;;;14.80;92.70;;;;;;5022243;28;20026;-82
2023/10/24 12:01:32;;;;;;;4.88;2.25;;;14.80;92.80;;;;;;5021226;28;20017;-82
2023/10/24 12:03:59;;;;;;;5.00;2.70;;;14.70;93.10;;;;;;5021889;28;20061;-82
2023/10/24 12:06:29;;;;;;;6.47;2.42;;;14.70;93.20;;;;;;5021908;28;20030;-82
2023/10/24 12:08:55;;;;;;;4.65;2.80;;;14.60;93.30;;;;;;5020940;28;20364;-81
2023/10/24 12:11:24;;;;;;;5.45;2.53;;;14.60;93.50;;;;;;5005422;28;20030;-82
2023/10/24 12:13:50;;;;;;;5.53;2.05;;;14.60;93.70;;;;;;5020520;28;20177;-81
2023/10/24 12:16:16;;;;;;;5.50;2.30;;;14.50;93.80;;;;;;5022340;28;20030;-82
2023/10/24 12:18:42;;;;;;;4.18;1.70;;;14.40;93.90;;;;;;5021178;28;20478;-82
2023/10/24 12:21:09;;;;;;;5.60;1.80;;;14.40;94.20;;;;;;5021818;28;20025;-81
2023/10/24 12:23:35;;;;;;;3.78;1.63;;;14.50;94.20;;;;;;5020855;28;20026;-81
2023/10/24 12:26:04;;;;;;;4.78;1.30;;;14.50;94.30;;;;;;5021022;28;20052;-81
2023/10/24 12:28:32;;;;;;;4.13;1.50;;;14.50;94.40;;;;;;5021599;28;20025;-81
2023/10/24 12:30:58;;;;;;;4.72;1.90;;;14.50;94.50;;;;;;5020659;28;20018;-81
2023/10/24 12:33:25;;;;;;;3.90;1.55;;;14.50;94.60;;;;;;5021939;28;20441;-82
2023/10/24 12:35:51;;;;;;;4.63;2.05;;;14.40;94.70;;;;;;5020949;28;20029;-81
2023/10/24 12:38:17;;;;;;;3.05;1.48;;;14.40;94.60;;;;;;5020821;28;20048;-81
2023/10/24 12:40:44;;;;;;;3.72;1.73;;;14.30;94.90;;;;;;5020882;28;20025;-81
2023/10/24 12:43:11;;;;;;;2.33;1.10;;;14.30;95.00;;;;;;5020563;28;20026;-81
2023/10/24 12:45:37;;;;;;;3.92;1.30;;;14.20;95.00;;;;;;5021230;28;20056;-81
2023/10/24 12:48:07;;;;;;;5.85;1.70;;;14.10;95.00;;;;;;5020385;28;20026;-81